createdAt,value
2022-08-31T00:01:59.699Z,12.63
2022-08-31T00:04:11.832Z,12.59
2022-08-31T00:06:23.834Z,12.57
2022-08-31T00:08:35.922Z,12.56
2022-08-31T00:10:48.004Z,12.52
2022-08-31T00:13:01.119Z,12.48
2022-08-31T00:15:13.213Z,12.45
2022-08-31T00:17:25.299Z,12.46
2022-08-31T00:19:37.366Z,12.44
2022-08-31T00:21:49.457Z,12.45
2022-08-31T00:24:01.550Z,12.48
2022-08-31T00:26:13.666Z,12.48
2022-08-31T00:28:25.743Z,12.45
2022-08-31T00:30:37.829Z,12.45
2022-08-31T00:32:49.975Z,12.44
2022-08-31T00:35:01.993Z,12.45
2022-08-31T00:37:14.091Z,12.45
2022-08-31T00:39:26.150Z,12.45
2022-08-31T00:41:38.228Z,12.45
2022-08-31T00:43:50.364Z,12.45
2022-08-31T00:46:02.478Z,12.45
2022-08-31T00:48:14.548Z,12.44
2022-08-31T00:50:26.602Z,12.42
2022-08-31T00:52:38.680Z,12.42
2022-08-31T00:54:51.334Z,12.44
2022-08-31T00:57:02.869Z,12.44
2022-08-31T00:59:14.981Z,12.42
2022-08-31T01:01:27.091Z,12.38
2022-08-31T01:03:39.110Z,12.34
2022-08-31T01:05:52.041Z,12.31
2022-08-31T01:08:03.291Z,12.29
2022-08-31T01:10:15.408Z,12.24
2022-08-31T01:12:27.489Z,12.23
2022-08-31T01:14:39.565Z,12.24
2022-08-31T01:16:51.727Z,12.27
2022-08-31T01:19:03.759Z,12.26
2022-08-31T01:21:18.340Z,12.27
2022-08-31T01:23:28.910Z,12.33
2022-08-31T01:25:40.989Z,12.34
2022-08-31T01:27:53.085Z,12.41
2022-08-31T01:30:05.165Z,12.48
2022-08-31T01:32:17.267Z,12.56
2022-08-31T01:34:29.309Z,12.62
2022-08-31T01:36:41.402Z,12.67
2022-08-31T01:38:53.571Z,12.71
2022-08-31T01:41:05.580Z,12.77
2022-08-31T01:43:17.829Z,12.81
2022-08-31T01:45:29.754Z,12.85
2022-08-31T01:47:41.821Z,12.89
2022-08-31T01:49:57.490Z,12.96
2022-08-31T01:52:06.012Z,12.99
2022-08-31T01:54:18.120Z,13.04
2022-08-31T01:56:31.001Z,13.09
2022-08-31T01:58:42.246Z,13.11
2022-08-31T02:00:54.408Z,13.15
2022-08-31T02:03:06.409Z,13.18
2022-08-31T02:05:18.517Z,13.21
2022-08-31T02:07:30.579Z,13.22
2022-08-31T02:09:42.681Z,13.25
2022-08-31T02:11:55.761Z,13.25
2022-08-31T02:14:07.849Z,13.29
2022-08-31T02:16:20.064Z,13.30
2022-08-31T02:18:32.006Z,13.29
2022-08-31T02:20:45.039Z,13.33
2022-08-31T02:22:56.184Z,13.36
2022-08-31T02:25:08.572Z,13.32
2022-08-31T02:27:20.377Z,13.32
2022-08-31T02:29:32.428Z,13.29
2022-08-31T02:31:44.535Z,13.30
2022-08-31T02:33:56.589Z,13.27
2022-08-31T02:36:08.667Z,13.24
2022-08-31T02:38:20.790Z,13.24
2022-08-31T02:40:32.875Z,13.22
2022-08-31T02:42:53.079Z,13.21
2022-08-31T02:44:57.012Z,13.18
2022-08-31T02:47:09.658Z,13.14
2022-08-31T02:49:21.201Z,13.11
2022-08-31T02:51:33.560Z,13.06
2022-08-31T02:53:45.639Z,13.04
2022-08-31T02:55:57.730Z,12.99
2022-08-31T02:58:09.808Z,12.97
2022-08-31T03:00:21.915Z,12.93
2022-08-31T03:02:34.009Z,12.88
2022-08-31T03:04:46.051Z,12.82
2022-08-31T03:06:58.129Z,12.78
2022-08-31T03:09:10.198Z,12.75
2022-08-31T03:11:22.310Z,12.69
2022-08-31T03:13:34.376Z,12.63
2022-08-31T03:15:46.498Z,12.62
2022-08-31T03:17:58.545Z,12.59
2022-08-31T03:20:10.625Z,12.52
2022-08-31T03:22:22.727Z,12.48
2022-08-31T03:24:34.786Z,12.46
2022-08-31T03:26:46.863Z,12.39
2022-08-31T03:28:58.946Z,12.34
2022-08-31T03:31:11.071Z,12.27
2022-08-31T03:33:23.123Z,12.23
2022-08-31T03:35:36.184Z,12.20
2022-08-31T03:37:48.269Z,12.19
2022-08-31T03:40:00.433Z,12.15
2022-08-31T03:42:12.417Z,12.11
2022-08-31T03:44:24.519Z,12.09
2022-08-31T03:46:36.632Z,12.05
2022-08-31T03:48:48.659Z,12.02
2022-08-31T03:51:00.743Z,11.99
2022-08-31T03:53:12.822Z,11.96
2022-08-31T03:55:24.933Z,11.90
2022-08-31T03:57:36.986Z,11.89
2022-08-31T03:59:49.069Z,11.87
2022-08-31T04:02:01.169Z,11.86
2022-08-31T04:04:13.225Z,11.82
2022-08-31T04:06:25.326Z,11.83
2022-08-31T04:08:38.885Z,11.80
2022-08-31T04:10:50.971Z,11.75
2022-08-31T04:13:03.061Z,11.72
2022-08-31T04:15:15.193Z,11.71
2022-08-31T04:17:28.312Z,11.70
2022-08-31T04:19:40.364Z,11.70
2022-08-31T04:21:52.445Z,11.67
2022-08-31T04:24:08.087Z,11.62
2022-08-31T04:26:21.599Z,11.59
2022-08-31T04:28:33.713Z,11.59
2022-08-31T04:30:45.813Z,11.57
2022-08-31T04:32:57.866Z,11.56
2022-08-31T04:35:09.937Z,11.52
2022-08-31T04:37:22.326Z,11.50
2022-08-31T04:39:34.435Z,11.47
2022-08-31T04:41:46.488Z,11.47
2022-08-31T04:43:58.567Z,11.49
2022-08-31T04:46:10.711Z,11.50
2022-08-31T04:48:24.560Z,11.50
2022-08-31T04:50:39.310Z,11.52
2022-08-31T04:53:03.155Z,11.53
2022-08-31T04:54:59.961Z,11.56
2022-08-31T04:57:12.041Z,11.59
2022-08-31T04:59:24.115Z,11.62
2022-08-31T05:01:43.114Z,11.64
2022-08-31T05:03:49.321Z,11.65
2022-08-31T05:06:01.344Z,11.74
2022-08-31T05:08:13.421Z,11.80
2022-08-31T05:10:25.510Z,11.86
2022-08-31T05:12:37.618Z,11.94
2022-08-31T05:14:49.661Z,12.02
2022-08-31T05:17:01.743Z,12.15
2022-08-31T05:19:13.834Z,12.23
2022-08-31T05:21:25.902Z,12.30
2022-08-31T05:23:38.012Z,12.38
2022-08-31T05:25:50.091Z,12.48
2022-08-31T05:28:03.143Z,12.54
2022-08-31T05:30:16.428Z,12.64
2022-08-31T05:32:28.547Z,12.75
2022-08-31T05:34:40.650Z,12.87
2022-08-31T05:36:52.710Z,12.99
2022-08-31T05:39:04.797Z,13.11
2022-08-31T05:41:17.859Z,13.21
2022-08-31T05:43:29.953Z,13.36
2022-08-31T05:45:42.054Z,13.44
2022-08-31T05:47:54.092Z,13.55
2022-08-31T05:50:08.397Z,13.67
2022-08-31T05:52:18.307Z,13.81
2022-08-31T05:54:30.416Z,13.99
2022-08-31T05:56:42.963Z,14.16
2022-08-31T05:58:54.563Z,14.46
2022-08-31T06:01:07.641Z,14.64
2022-08-31T06:03:19.950Z,14.87
2022-08-31T06:05:31.886Z,14.91
2022-08-31T06:07:43.982Z,14.94
2022-08-31T06:08:44.624Z,14.95
2022-08-31T06:10:55.995Z,15.11
2022-08-31T06:13:08.095Z,15.11
2022-08-31T06:15:20.144Z,15.17
2022-08-31T06:17:32.241Z,15.17
2022-08-31T06:19:44.305Z,15.20
2022-08-31T06:21:56.393Z,15.15
2022-08-31T06:24:08.504Z,15.24
2022-08-31T06:26:20.564Z,15.30
2022-08-31T06:28:32.638Z,15.43
2022-08-31T06:30:54.835Z,15.49
2022-08-31T06:32:58.863Z,15.54
2022-08-31T06:35:08.894Z,15.63
2022-08-31T06:37:20.960Z,15.63
2022-08-31T06:39:33.048Z,15.68
2022-08-31T06:41:45.108Z,15.82
2022-08-31T06:43:57.189Z,15.93
2022-08-31T06:46:09.342Z,16.01
2022-08-31T06:48:22.344Z,16.11
2022-08-31T06:50:34.415Z,16.23
2022-08-31T06:52:47.348Z,16.27
2022-08-31T06:54:58.603Z,16.30
2022-08-31T06:57:10.694Z,16.33
2022-08-31T06:59:27.732Z,16.37
2022-08-31T07:01:36.141Z,16.44
2022-08-31T07:03:46.925Z,16.56
2022-08-31T07:05:59.124Z,16.88
2022-08-31T07:08:11.140Z,16.93
2022-08-31T07:10:23.199Z,17.00
2022-08-31T07:12:35.258Z,16.99
2022-08-31T07:14:54.572Z,17.04
2022-08-31T07:16:59.505Z,16.98
2022-08-31T07:19:11.525Z,17.10
2022-08-31T07:21:23.590Z,17.18
2022-08-31T07:23:35.655Z,17.22
2022-08-31T07:25:48.578Z,17.32
2022-08-31T07:27:59.822Z,17.32
2022-08-31T07:30:11.915Z,17.38
2022-08-31T07:32:23.970Z,17.43
2022-08-31T07:34:36.071Z,17.44
2022-08-31T07:36:48.178Z,17.53
2022-08-31T07:39:00.220Z,17.71
2022-08-31T07:41:12.326Z,17.78
2022-08-31T07:43:25.367Z,17.87
2022-08-31T07:45:39.176Z,17.95
2022-08-31T07:47:49.534Z,18.00
2022-08-31T07:50:01.625Z,18.00
2022-08-31T07:52:13.713Z,18.07
2022-08-31T07:54:25.774Z,18.07
2022-08-31T07:56:37.866Z,18.27
2022-08-31T07:58:49.951Z,18.40
2022-08-31T08:01:02.032Z,18.44
2022-08-31T08:03:14.215Z,18.52
2022-08-31T08:05:27.435Z,18.57
2022-08-31T08:07:38.255Z,18.61
2022-08-31T08:09:50.336Z,18.65
2022-08-31T08:12:02.422Z,18.74
2022-08-31T08:14:14.522Z,18.82
2022-08-31T08:16:26.670Z,18.87
2022-08-31T08:18:38.688Z,18.87
2022-08-31T08:20:50.767Z,18.87
2022-08-31T08:23:02.834Z,18.98
2022-08-31T08:25:16.583Z,19.10
2022-08-31T08:27:27.012Z,19.20
2022-08-31T08:29:39.100Z,19.24
2022-08-31T08:31:51.239Z,19.23
2022-08-31T08:34:03.260Z,19.24
2022-08-31T08:36:16.188Z,19.25
2022-08-31T08:38:27.414Z,19.28
2022-08-31T08:40:39.600Z,19.36
2022-08-31T08:42:51.574Z,19.51
2022-08-31T08:45:04.639Z,19.69
2022-08-31T08:47:16.757Z,19.73
2022-08-31T08:49:28.822Z,19.69
2022-08-31T08:51:40.895Z,19.72
2022-08-31T08:53:52.971Z,19.80
2022-08-31T08:56:29.538Z,19.87
2022-08-31T08:57:06.044Z,19.97
2022-08-31T08:59:19.654Z,20.12
2022-08-31T09:01:29.333Z,20.10
2022-08-31T09:03:41.317Z,20.20
2022-08-31T09:05:53.371Z,20.31
2022-08-31T09:08:05.456Z,20.39
2022-08-31T09:10:17.518Z,20.50
2022-08-31T09:12:29.605Z,20.64
2022-08-31T09:14:41.710Z,20.66
2022-08-31T09:16:53.760Z,20.72
2022-08-31T09:19:05.860Z,20.51
2022-08-31T09:21:18.760Z,20.65
2022-08-31T09:23:29.999Z,20.89
2022-08-31T09:25:42.124Z,21.04
2022-08-31T09:27:54.177Z,20.99
2022-08-31T09:30:06.633Z,21.13
2022-08-31T09:32:18.335Z,21.27
2022-08-31T09:34:30.415Z,21.38
2022-08-31T09:36:42.509Z,21.53
2022-08-31T09:38:54.560Z,21.78
2022-08-31T09:41:06.630Z,21.92
2022-08-31T09:43:18.839Z,21.97
2022-08-31T09:45:30.828Z,22.17
2022-08-31T09:47:42.892Z,22.49
2022-08-31T09:49:54.954Z,22.56
2022-08-31T09:52:07.011Z,22.41
2022-08-31T09:54:19.115Z,22.31
2022-08-31T09:56:31.177Z,22.41
2022-08-31T09:58:43.278Z,22.60
2022-08-31T10:00:55.355Z,22.68
2022-08-31T10:03:07.437Z,22.53
2022-08-31T10:05:19.653Z,22.72
2022-08-31T10:07:31.603Z,23.15
2022-08-31T10:09:44.023Z,23.45
2022-08-31T10:11:56.081Z,23.55
2022-08-31T10:14:08.169Z,23.62
2022-08-31T10:16:20.249Z,23.79
2022-08-31T10:18:32.350Z,23.60
2022-08-31T10:20:44.425Z,23.82
2022-08-31T10:22:56.492Z,23.67
2022-08-31T10:25:08.576Z,23.09
2022-08-31T10:27:20.645Z,23.29
2022-08-31T10:29:32.739Z,23.42
2022-08-31T10:31:44.834Z,23.55
2022-08-31T10:33:56.882Z,23.49
2022-08-31T10:36:09.030Z,23.55
2022-08-31T10:38:21.055Z,23.89
2022-08-31T10:40:33.211Z,23.94
2022-08-31T10:42:46.553Z,23.55
2022-08-31T10:44:58.298Z,23.19
2022-08-31T10:47:14.264Z,22.67
2022-08-31T10:48:11.373Z,22.77
2022-08-31T10:50:22.465Z,22.46
2022-08-31T10:52:34.532Z,22.50
2022-08-31T10:54:46.617Z,22.32
2022-08-31T10:57:00.745Z,22.20
2022-08-31T10:59:11.809Z,22.22
2022-08-31T11:01:23.874Z,22.43
2022-08-31T11:03:36.029Z,22.41
2022-08-31T11:05:50.792Z,21.97
2022-08-31T11:08:00.128Z,21.81
2022-08-31T11:10:12.245Z,22.35
2022-08-31T11:12:24.292Z,22.68
2022-08-31T11:14:36.396Z,22.16
2022-08-31T11:16:49.374Z,21.82
2022-08-31T11:19:00.556Z,22.10
2022-08-31T11:21:12.660Z,22.43
2022-08-31T11:23:24.728Z,22.68
2022-08-31T11:25:36.802Z,22.77
2022-08-31T11:27:48.889Z,23.27
2022-08-31T11:30:00.966Z,23.65
2022-08-31T11:32:13.065Z,23.82
2022-08-31T11:34:25.174Z,23.77
2022-08-31T11:36:37.235Z,23.68
2022-08-31T11:38:49.311Z,23.60
2022-08-31T11:41:01.386Z,22.92
2022-08-31T11:43:13.525Z,22.75
2022-08-31T11:45:25.712Z,22.94
2022-08-31T11:47:37.642Z,23.12
2022-08-31T11:49:49.750Z,23.42
2022-08-31T11:52:01.830Z,23.57
2022-08-31T11:54:13.938Z,23.34
2022-08-31T11:56:25.999Z,23.02
2022-08-31T11:58:39.058Z,23.02
2022-08-31T12:00:52.390Z,23.29
2022-08-31T12:03:03.256Z,23.40
2022-08-31T12:05:15.434Z,23.38
2022-08-31T12:07:27.455Z,23.31
2022-08-31T12:09:39.754Z,23.01
2022-08-31T12:11:51.614Z,22.68
2022-08-31T12:14:03.688Z,22.53
2022-08-31T12:16:15.837Z,22.22
2022-08-31T12:18:27.844Z,22.06
2022-08-31T12:20:39.935Z,22.28
2022-08-31T12:22:52.004Z,22.49
2022-08-31T12:25:04.385Z,22.67
2022-08-31T12:27:16.482Z,22.74
2022-08-31T12:29:28.544Z,22.56
2022-08-31T12:31:40.667Z,22.72
2022-08-31T12:33:52.710Z,22.93
2022-08-31T12:36:04.769Z,22.94
2022-08-31T12:38:17.886Z,22.82
2022-08-31T12:40:29.966Z,22.84
2022-08-31T12:42:42.012Z,22.68
2022-08-31T12:44:54.087Z,22.41
2022-08-31T12:47:06.172Z,22.31
2022-08-31T12:49:18.271Z,22.52
2022-08-31T12:51:30.331Z,22.49
2022-08-31T12:53:43.359Z,22.44
2022-08-31T12:55:54.510Z,22.52
2022-08-31T12:58:06.600Z,22.60
2022-08-31T13:00:19.713Z,22.53
2022-08-31T13:02:32.877Z,22.37
2022-08-31T13:04:43.840Z,22.27
2022-08-31T13:06:55.931Z,22.16
2022-08-31T13:09:08.036Z,21.99
2022-08-31T13:11:20.841Z,21.85
2022-08-31T13:13:32.166Z,22.07
2022-08-31T13:15:44.253Z,22.31
2022-08-31T13:17:56.314Z,22.46
2022-08-31T13:20:08.400Z,22.44
2022-08-31T13:22:21.335Z,22.19
2022-08-31T13:24:32.551Z,22.22
2022-08-31T13:26:44.634Z,22.19
2022-08-31T13:28:56.703Z,22.07
2022-08-31T13:31:08.900Z,21.97
2022-08-31T13:33:21.059Z,21.85
2022-08-31T13:35:32.951Z,21.71
2022-08-31T13:37:45.024Z,21.51
2022-08-31T13:39:57.113Z,21.48
2022-08-31T13:42:09.184Z,21.60
2022-08-31T13:44:21.311Z,21.69
2022-08-31T13:46:42.285Z,21.81
2022-08-31T13:48:45.436Z,21.85
2022-08-31T13:50:57.505Z,21.90
2022-08-31T13:53:26.256Z,21.91
2022-08-31T13:54:10.573Z,21.90
2022-08-31T13:56:21.660Z,21.97
2022-08-31T13:58:33.738Z,21.97
2022-08-31T14:00:45.849Z,21.91
2022-08-31T14:02:58.258Z,21.95
2022-08-31T14:05:10.358Z,21.97
2022-08-31T14:07:22.973Z,21.98
2022-08-31T14:09:34.957Z,21.98
2022-08-31T14:11:46.563Z,21.97
2022-08-31T14:13:58.613Z,21.97
2022-08-31T14:16:10.763Z,21.99
2022-08-31T14:18:24.888Z,22.04
2022-08-31T14:20:34.856Z,22.04
2022-08-31T14:22:46.958Z,22.07
2022-08-31T14:24:59.018Z,22.19
2022-08-31T14:27:11.128Z,22.25
2022-08-31T14:29:23.165Z,22.29
2022-08-31T14:31:35.284Z,22.14
2022-08-31T14:33:47.367Z,22.04
2022-08-31T14:35:59.410Z,21.90
2022-08-31T14:38:11.565Z,21.72
2022-08-31T14:40:23.619Z,21.66
2022-08-31T14:42:35.645Z,21.46
2022-08-31T14:44:47.759Z,21.51
2022-08-31T14:46:59.803Z,21.53
2022-08-31T14:49:11.898Z,21.64
2022-08-31T14:51:23.969Z,21.82
2022-08-31T14:53:36.083Z,21.94
2022-08-31T14:55:48.170Z,22.02
2022-08-31T14:58:00.239Z,22.06
2022-08-31T15:00:12.312Z,22.07
2022-08-31T15:02:24.442Z,22.09
2022-08-31T15:04:38.908Z,22.06
2022-08-31T15:06:48.575Z,22.07
2022-08-31T15:09:00.636Z,22.07
2022-08-31T15:11:12.728Z,22.16
2022-08-31T15:13:24.805Z,22.10
2022-08-31T15:15:36.893Z,22.04
2022-08-31T15:17:50.130Z,22.06
2022-08-31T15:20:02.049Z,22.06
2022-08-31T15:22:14.134Z,21.98
2022-08-31T15:24:26.242Z,21.85
2022-08-31T15:26:38.321Z,21.71
2022-08-31T15:28:50.441Z,21.64
2022-08-31T15:31:02.487Z,21.53
2022-08-31T15:33:14.755Z,21.41
2022-08-31T15:35:26.659Z,21.34
2022-08-31T15:37:38.814Z,21.26
2022-08-31T15:39:50.832Z,21.30
2022-08-31T15:42:02.928Z,21.34
2022-08-31T15:44:14.974Z,21.41
2022-08-31T15:46:27.080Z,21.51
2022-08-31T15:48:39.147Z,21.60
2022-08-31T15:50:51.269Z,21.79
2022-08-31T15:53:09.314Z,22.09
2022-08-31T15:55:16.588Z,22.54
2022-08-31T15:57:28.553Z,23.01
2022-08-31T15:59:40.635Z,23.07
2022-08-31T16:01:52.850Z,22.82
2022-08-31T16:04:06.300Z,22.59
2022-08-31T16:06:18.376Z,22.16
2022-08-31T16:08:30.451Z,21.76
2022-08-31T16:10:42.571Z,21.53
2022-08-31T16:12:55.498Z,21.36
2022-08-31T16:15:08.206Z,21.20
2022-08-31T16:17:20.284Z,21.09
2022-08-31T16:19:35.758Z,20.98
2022-08-31T16:21:46.024Z,20.90
2022-08-31T16:23:57.857Z,20.84
2022-08-31T16:26:09.905Z,20.79
2022-08-31T16:28:22.320Z,20.72
2022-08-31T16:30:34.104Z,20.71
2022-08-31T16:32:50.374Z,20.64
2022-08-31T16:34:58.279Z,20.66
2022-08-31T16:37:10.640Z,20.64
2022-08-31T16:39:27.914Z,20.58
2022-08-31T16:41:35.806Z,20.53
2022-08-31T16:44:03.422Z,20.42
2022-08-31T16:44:48.875Z,20.33
2022-08-31T16:46:59.095Z,20.30
2022-08-31T16:49:11.076Z,20.25
2022-08-31T16:51:23.188Z,20.20
2022-08-31T16:53:35.285Z,20.15
2022-08-31T16:55:47.425Z,20.09
2022-08-31T16:57:59.459Z,20.06
2022-08-31T17:00:12.044Z,20.03
2022-08-31T17:02:23.742Z,20.05
2022-08-31T17:04:51.645Z,20.13
2022-08-31T17:05:36.658Z,20.13
2022-08-31T17:07:47.785Z,20.13
2022-08-31T17:09:59.862Z,20.13
2022-08-31T17:12:11.910Z,20.05
2022-08-31T17:14:24.979Z,20.00
2022-08-31T17:16:37.956Z,19.93
2022-08-31T17:18:49.149Z,19.87
2022-08-31T17:21:01.222Z,19.87
2022-08-31T17:23:14.322Z,19.79
2022-08-31T17:25:26.394Z,19.66
2022-08-31T17:27:38.467Z,19.60
2022-08-31T17:29:50.686Z,19.50
2022-08-31T17:32:02.671Z,19.39
2022-08-31T17:34:14.692Z,19.28
2022-08-31T17:36:26.779Z,19.14
2022-08-31T17:38:38.857Z,19.02
2022-08-31T17:40:51.050Z,18.95
2022-08-31T17:43:06.538Z,18.84
2022-08-31T17:45:18.635Z,18.68
2022-08-31T17:47:31.691Z,18.55
2022-08-31T17:49:46.554Z,18.43
2022-08-31T17:51:56.838Z,18.36
2022-08-31T17:54:07.953Z,18.28
2022-08-31T17:56:23.219Z,18.19
2022-08-31T17:58:32.130Z,18.09
2022-08-31T18:00:46.085Z,17.97
2022-08-31T18:02:57.300Z,17.89
2022-08-31T18:05:11.679Z,17.82
2022-08-31T18:07:21.446Z,17.78
2022-08-31T18:09:33.522Z,17.69
2022-08-31T18:11:45.611Z,17.63
2022-08-31T18:13:57.689Z,17.53
2022-08-31T18:16:09.837Z,17.44
2022-08-31T18:18:21.870Z,17.38
2022-08-31T18:20:34.938Z,17.32
2022-08-31T18:22:52.198Z,17.25
2022-08-31T18:25:00.147Z,17.18
2022-08-31T18:27:13.186Z,17.10
2022-08-31T18:29:25.389Z,16.99
2022-08-31T18:31:37.437Z,16.90
2022-08-31T18:33:50.465Z,16.85
2022-08-31T18:36:02.577Z,16.75
2022-08-31T18:38:14.698Z,16.70
2022-08-31T18:40:27.615Z,16.60
2022-08-31T18:42:38.829Z,16.49
2022-08-31T18:44:52.857Z,16.41
2022-08-31T18:47:05.036Z,16.30
2022-08-31T18:49:17.029Z,16.23
2022-08-31T18:51:29.276Z,16.14
2022-08-31T18:53:42.194Z,16.04
2022-08-31T18:55:54.268Z,15.94
2022-08-31T18:58:07.350Z,15.86
2022-08-31T19:00:19.416Z,15.79
2022-08-31T19:02:31.561Z,15.70
2022-08-31T19:04:43.561Z,15.66
2022-08-31T19:06:55.653Z,15.54
2022-08-31T19:09:07.799Z,15.48
2022-08-31T19:11:20.850Z,15.42
2022-08-31T19:13:32.933Z,15.36
2022-08-31T19:15:45.029Z,15.28
2022-08-31T19:17:57.142Z,15.20
2022-08-31T19:20:10.618Z,15.17
2022-08-31T19:22:22.253Z,15.11
2022-08-31T19:24:34.332Z,15.05
2022-08-31T19:26:46.420Z,15.01
2022-08-31T19:28:58.512Z,14.93
2022-08-31T19:31:11.695Z,14.86
2022-08-31T19:33:23.699Z,14.83
2022-08-31T19:35:36.488Z,14.78
2022-08-31T19:37:47.877Z,14.74
2022-08-31T19:39:59.943Z,14.67
2022-08-31T19:42:12.048Z,14.65
2022-08-31T19:44:25.098Z,14.60
2022-08-31T19:46:36.219Z,14.53
2022-08-31T19:48:48.307Z,14.50
2022-08-31T19:51:00.386Z,14.46
2022-08-31T19:53:12.682Z,14.39
2022-08-31T19:55:24.543Z,14.34
2022-08-31T19:57:36.638Z,14.31
2022-08-31T19:59:49.584Z,14.28
2022-08-31T20:02:00.930Z,14.24
2022-08-31T20:04:16.462Z,14.20
2022-08-31T20:06:24.999Z,14.16
2022-08-31T20:08:37.063Z,14.10
2022-08-31T20:10:49.153Z,14.10
2022-08-31T20:13:02.724Z,14.04
2022-08-31T20:15:14.825Z,14.04
2022-08-31T20:17:26.880Z,13.98
2022-08-31T20:19:38.969Z,13.95
2022-08-31T20:21:51.904Z,13.89
2022-08-31T20:24:03.133Z,13.84
2022-08-31T20:26:15.551Z,13.80
2022-08-31T20:28:27.595Z,13.80
2022-08-31T20:30:39.683Z,13.77
2022-08-31T20:32:51.758Z,13.79
2022-08-31T20:35:03.846Z,13.77
2022-08-31T20:37:15.935Z,13.76
2022-08-31T20:39:26.996Z,13.74
2022-08-31T20:41:39.072Z,13.81
2022-08-31T20:43:51.153Z,13.88
2022-08-31T20:46:04.133Z,13.94
2022-08-31T20:48:15.329Z,14.02
2022-08-31T20:50:27.391Z,14.04
2022-08-31T20:52:39.473Z,14.07
2022-08-31T20:54:51.555Z,14.06
2022-08-31T20:57:03.641Z,14.02
2022-08-31T20:59:15.749Z,14.06
2022-08-31T21:01:27.827Z,14.09
2022-08-31T21:03:39.871Z,14.12
2022-08-31T21:05:51.965Z,14.10
2022-08-31T21:08:04.046Z,14.09
2022-08-31T21:10:16.134Z,14.20
2022-08-31T21:12:28.202Z,14.25
2022-08-31T21:14:40.281Z,14.24
2022-08-31T21:16:52.363Z,14.20
2022-08-31T21:19:04.442Z,14.20
2022-08-31T21:21:16.839Z,14.17
2022-08-31T21:23:28.911Z,14.16
2022-08-31T21:25:40.988Z,14.14
2022-08-31T21:27:53.091Z,14.16
2022-08-31T21:30:05.147Z,14.19
2022-08-31T21:32:17.311Z,14.19
2022-08-31T21:34:29.314Z,14.20
2022-08-31T21:36:41.390Z,14.21
2022-08-31T21:38:53.469Z,14.19
2022-08-31T21:41:05.557Z,14.14
2022-08-31T21:43:17.718Z,14.13
2022-08-31T21:45:29.723Z,14.09
2022-08-31T21:47:41.786Z,14.07
2022-08-31T21:49:53.867Z,13.99
2022-08-31T21:52:05.950Z,13.98
2022-08-31T21:54:18.057Z,13.91
2022-08-31T21:56:30.132Z,13.89
2022-08-31T21:58:42.190Z,13.84
2022-08-31T22:00:55.408Z,13.79
2022-08-31T22:03:06.401Z,13.77
2022-08-31T22:05:18.455Z,13.73
2022-08-31T22:07:30.497Z,13.70
2022-08-31T22:09:42.577Z,13.70
2022-08-31T22:11:54.655Z,13.70
2022-08-31T22:14:06.742Z,13.70
2022-08-31T22:16:19.841Z,13.70
2022-08-31T22:20:42.978Z,13.73
2022-08-31T22:22:55.130Z,13.71
2022-08-31T22:25:07.982Z,13.73
2022-08-31T22:27:19.241Z,13.76
2022-08-31T22:29:31.291Z,13.77
2022-08-31T22:31:43.424Z,13.79
2022-08-31T22:33:55.450Z,13.81
2022-08-31T22:36:07.536Z,13.84
2022-08-31T22:38:19.795Z,13.84
2022-08-31T22:40:31.768Z,13.88
2022-08-31T22:42:44.758Z,13.95
2022-08-31T22:44:56.850Z,13.98
2022-08-31T22:47:08.928Z,14.02
2022-08-31T22:49:21.021Z,14.07
2022-08-31T22:51:33.078Z,14.12
2022-08-31T22:53:45.178Z,14.14
2022-08-31T22:55:57.267Z,14.20
2022-08-31T22:58:09.348Z,14.21
2022-08-31T23:00:21.470Z,14.24
2022-08-31T23:02:33.555Z,14.28
2022-08-31T23:04:45.670Z,14.28
2022-08-31T23:06:57.678Z,14.31
2022-08-31T23:09:09.757Z,14.35
2022-08-31T23:11:21.850Z,14.42
2022-08-31T23:13:33.913Z,14.46
2022-08-31T23:15:46.049Z,14.46
2022-08-31T23:17:58.070Z,14.47
2022-08-31T23:20:11.145Z,14.49
2022-08-31T23:22:24.613Z,14.56
2022-08-31T23:24:35.313Z,14.57
2022-08-31T23:26:47.380Z,14.57
2022-08-31T23:28:59.454Z,14.57
2022-08-31T23:31:11.598Z,14.60
2022-08-31T23:33:23.635Z,14.65
2022-08-31T23:35:36.641Z,14.68
2022-08-31T23:37:47.775Z,14.69
2022-08-31T23:39:59.851Z,14.69
2022-08-31T23:42:11.936Z,14.74
2022-08-31T23:44:24.033Z,14.80
2022-08-31T23:46:36.999Z,14.80
2022-08-31T23:48:48.170Z,14.83
2022-08-31T23:51:00.261Z,14.83
2022-08-31T23:53:12.339Z,14.81
2022-08-31T23:55:24.440Z,14.83
2022-08-31T23:57:36.498Z,14.84
2022-08-31T23:59:52.341Z,14.86
